createdAt,value
2018-06-05T00:01:46.747Z,99.99
2018-06-05T00:02:46.757Z,99.99
2018-06-05T00:03:46.805Z,99.99
2018-06-05T00:04:46.809Z,99.99
2018-06-05T00:05:46.850Z,99.99
2018-06-05T00:06:46.598Z,99.99
2018-06-05T00:08:01.548Z,99.99
2018-06-05T00:08:46.909Z,99.99
2018-06-05T00:09:46.950Z,99.99
2018-06-05T00:10:46.954Z,99.99
2018-06-05T00:11:46.995Z,99.99
2018-06-05T00:12:46.745Z,99.99
2018-06-05T00:13:47.026Z,99.99
2018-06-05T00:14:47.062Z,99.99
2018-06-05T00:15:47.092Z,99.99
2018-06-05T00:16:47.116Z,99.99
2018-06-05T00:18:47.164Z,99.99
2018-06-05T00:19:47.171Z,99.99
2018-06-05T00:21:46.963Z,99.99
2018-06-05T00:22:47.263Z,99.99
2018-06-05T00:23:47.269Z,99.99
2018-06-05T00:24:47.296Z,99.99
2018-06-05T00:25:47.058Z,99.99
2018-06-05T00:26:47.365Z,99.99
2018-06-05T00:27:47.387Z,99.99
2018-06-05T00:28:47.389Z,99.99
2018-06-05T00:29:47.433Z,99.99
2018-06-05T00:30:47.438Z,99.99
2018-06-05T00:32:47.509Z,99.99
2018-06-05T00:33:47.513Z,99.99
2018-06-05T00:36:47.582Z,99.99
2018-06-05T00:37:47.623Z,99.99
2018-06-05T00:38:47.647Z,99.99
2018-06-05T00:40:02.316Z,99.99
2018-06-05T00:40:47.695Z,99.99
2018-06-05T00:41:47.703Z,99.99
2018-06-05T00:42:47.744Z,99.99
2018-06-05T00:43:47.751Z,99.99
2018-06-05T00:44:47.792Z,99.99
2018-06-05T00:45:47.552Z,99.99
2018-06-05T00:46:47.578Z,99.99
2018-06-05T00:47:47.846Z,99.99
2018-06-05T00:48:47.869Z,99.99
2018-06-05T00:49:47.911Z,99.99
2018-06-05T00:51:47.964Z,99.99
2018-06-05T00:52:47.988Z,99.99
2018-06-05T00:53:47.999Z,99.99
2018-06-05T00:54:48.029Z,99.99
2018-06-05T00:56:02.701Z,99.99
2018-06-05T00:56:48.084Z,99.99
2018-06-05T00:57:48.089Z,99.99
2018-06-05T00:58:48.183Z,99.99
2018-06-05T00:59:48.153Z,99.99
2018-06-05T01:00:48.166Z,99.99
2018-06-05T01:01:48.188Z,99.99
2018-06-05T01:02:48.231Z,99.99
2018-06-05T01:03:47.973Z,99.99
2018-06-05T01:04:48.276Z,99.99
2018-06-05T01:05:48.281Z,99.99
2018-06-05T01:06:48.309Z,99.99
2018-06-05T01:07:48.326Z,99.99
2018-06-05T01:08:48.374Z,99.99
2018-06-05T01:09:48.399Z,99.99
2018-06-05T01:10:48.407Z,99.99
2018-06-05T01:12:03.090Z,99.99
2018-06-05T01:12:48.450Z,99.99
2018-06-05T01:13:48.480Z,99.99
2018-06-05T01:14:48.502Z,99.99
2018-06-05T01:15:48.535Z,99.99
2018-06-05T01:16:48.563Z,99.99
2018-06-05T01:17:48.572Z,99.99
2018-06-05T01:18:48.617Z,99.99
2018-06-05T01:19:48.617Z,99.99
2018-06-05T01:20:48.767Z,99.99
2018-06-05T01:21:48.666Z,99.99
2018-06-05T01:22:48.703Z,99.99
2018-06-05T01:23:48.729Z,99.99
2018-06-05T01:24:48.753Z,99.99
2018-06-05T01:25:48.756Z,99.99
2018-06-05T01:26:48.783Z,99.99
2018-06-05T01:28:03.472Z,99.99
2018-06-05T01:28:48.831Z,99.99
2018-06-05T01:29:48.871Z,99.99
2018-06-05T01:30:48.881Z,99.99
2018-06-05T01:31:48.901Z,99.99
2018-06-05T01:32:48.943Z,99.99
2018-06-05T01:33:48.965Z,99.99
2018-06-05T01:34:48.974Z,99.99
2018-06-05T01:35:49.014Z,99.99
2018-06-05T01:36:49.020Z,99.99
2018-06-05T01:38:49.071Z,99.99
2018-06-05T01:40:49.134Z,99.99
2018-06-05T01:41:49.150Z,99.99
2018-06-05T01:43:03.832Z,99.99
2018-06-05T01:43:49.192Z,99.99
2018-06-05T01:44:49.219Z,99.99
2018-06-05T01:45:49.254Z,99.99
2018-06-05T01:46:49.264Z,99.99
2018-06-05T01:47:49.302Z,99.99
2018-06-05T01:48:49.310Z,99.99
2018-06-05T01:49:49.351Z,99.99
2018-06-05T01:50:49.357Z,99.99
2018-06-05T01:51:54.091Z,99.99
2018-06-05T01:52:49.156Z,99.99
2018-06-05T01:53:49.446Z,99.99
2018-06-05T01:55:49.474Z,99.99
2018-06-05T01:56:49.517Z,99.99
2018-06-05T01:57:49.267Z,99.99
2018-06-05T01:58:49.565Z,99.99
2018-06-05T01:59:49.593Z,99.99
2018-06-05T02:00:49.597Z,99.99
2018-06-05T02:01:49.619Z,99.99
2018-06-05T02:02:49.657Z,99.99
2018-06-05T02:03:49.424Z,99.99
2018-06-05T02:04:49.716Z,99.99
2018-06-05T02:05:49.721Z,99.99
2018-06-05T02:06:49.751Z,99.99
2018-06-05T02:07:49.762Z,99.99
2018-06-05T02:08:49.804Z,99.99
2018-06-05T02:09:49.811Z,99.99
2018-06-05T02:10:49.857Z,99.99
2018-06-05T02:11:49.864Z,99.99
2018-06-05T02:12:49.628Z,99.99
2018-06-05T02:13:49.663Z,99.99
2018-06-05T02:15:04.597Z,99.99
2018-06-05T02:15:49.965Z,99.99
2018-06-05T02:16:50.000Z,99.99
2018-06-05T02:17:50.000Z,99.99
2018-06-05T02:18:50.046Z,99.99
2018-06-05T02:19:49.793Z,99.99
2018-06-05T02:20:50.091Z,99.99
2018-06-05T02:21:50.105Z,99.99
2018-06-05T02:22:50.139Z,99.99
2018-06-05T02:23:50.144Z,99.99
2018-06-05T02:24:50.027Z,99.99
2018-06-05T02:25:50.197Z,99.99
2018-06-05T02:26:50.234Z,99.99
2018-06-05T02:27:50.239Z,99.99
2018-06-05T02:28:50.286Z,99.99
2018-06-05T02:29:50.286Z,99.99
2018-06-05T02:31:04.980Z,99.99
2018-06-05T02:31:50.367Z,99.99
2018-06-05T02:32:50.379Z,99.99
2018-06-05T02:33:50.382Z,99.99
2018-06-05T02:34:50.415Z,99.99
2018-06-05T02:35:50.450Z,99.99
2018-06-05T02:36:50.464Z,99.99
2018-06-05T02:38:50.507Z,99.99
2018-06-05T02:39:50.544Z,99.99
2018-06-05T02:40:50.551Z,99.99
2018-06-05T02:41:50.578Z,99.99
2018-06-05T02:42:50.598Z,99.99
2018-06-05T02:43:50.639Z,99.99
2018-06-05T02:44:50.663Z,99.99
2018-06-05T02:45:50.671Z,99.99
2018-06-05T02:47:05.358Z,99.99
2018-06-05T02:47:50.718Z,99.99
2018-06-05T02:48:50.740Z,99.99
2018-06-05T02:49:50.783Z,99.99
2018-06-05T02:50:50.796Z,99.99
2018-06-05T02:51:50.824Z,99.99
2018-06-05T02:52:50.853Z,99.99
2018-06-05T02:53:50.603Z,99.99
2018-06-05T02:54:50.642Z,99.99
2018-06-05T02:55:50.926Z,99.99
2018-06-05T02:56:50.949Z,99.99
2018-06-05T02:57:50.954Z,99.99
2018-06-05T02:58:50.978Z,99.99
2018-06-05T02:59:51.019Z,99.99
2018-06-05T03:00:51.045Z,99.99
2018-06-05T03:01:51.071Z,99.99
2018-06-05T03:03:05.735Z,99.99
2018-06-05T03:03:51.116Z,99.99
2018-06-05T03:04:51.121Z,99.99
2018-06-05T03:05:51.168Z,99.99
2018-06-05T03:06:51.188Z,99.99
2018-06-05T03:07:51.217Z,99.99
2018-06-05T03:08:50.972Z,99.99
2018-06-05T03:09:51.258Z,99.99
2018-06-05T03:10:51.262Z,99.99
2018-06-05T03:11:51.291Z,99.99
2018-06-05T03:12:51.329Z,99.99
2018-06-05T03:14:51.381Z,99.99
2018-06-05T03:15:51.382Z,99.99
2018-06-05T03:16:51.450Z,99.99
2018-06-05T03:18:06.095Z,99.99
2018-06-05T03:18:51.487Z,99.99
2018-06-05T03:19:51.221Z,99.99
2018-06-05T03:20:51.519Z,99.99
2018-06-05T03:21:51.526Z,99.99
2018-06-05T03:22:51.572Z,99.99
2018-06-05T03:23:51.351Z,99.99
2018-06-05T03:24:51.353Z,99.99
2018-06-05T03:25:51.638Z,99.99
2018-06-05T03:26:51.648Z,99.99
2018-06-05T03:28:51.692Z,99.99
2018-06-05T03:29:51.741Z,99.99
2018-06-05T03:30:51.748Z,99.99
2018-06-05T03:31:51.783Z,99.99
2018-06-05T03:32:51.803Z,99.99
2018-06-05T03:33:51.830Z,99.99
2018-06-05T03:34:51.838Z,99.99
2018-06-05T03:35:51.860Z,99.99
2018-06-05T03:36:51.639Z,99.99
2018-06-05T03:37:51.909Z,99.99
2018-06-05T03:38:51.947Z,99.99
2018-06-05T03:39:51.696Z,99.99
2018-06-05T03:40:52.046Z,99.99
2018-06-05T03:41:51.744Z,99.99
2018-06-05T03:42:52.027Z,99.99
2018-06-05T03:43:52.065Z,99.58
2018-06-05T03:44:52.094Z,99.2
2018-06-05T03:46:52.139Z,99.58
2018-06-05T03:47:52.142Z,98.62
2018-06-05T03:48:52.184Z,98.91
2018-06-05T03:50:06.857Z,98.48
2018-06-05T03:50:51.963Z,98.14
2018-06-05T03:51:51.983Z,98.53
2018-06-05T03:52:52.274Z,97.81
2018-06-05T03:53:52.307Z,97.81
2018-06-05T03:54:52.309Z,97.61
2018-06-05T03:55:52.094Z,97.52
2018-06-05T03:56:52.380Z,97.56
2018-06-05T03:57:52.404Z,97.81
2018-06-05T03:58:52.413Z,97.91
2018-06-05T03:59:52.454Z,97.56
2018-06-05T04:00:52.463Z,97.38
2018-06-05T04:01:52.478Z,97.52
2018-06-05T04:02:52.503Z,97.56
2018-06-05T04:03:52.281Z,97.61
2018-06-05T04:04:52.552Z,97.04
2018-06-05T04:06:07.239Z,97.52
2018-06-05T04:06:52.340Z,97.61
2018-06-05T04:07:52.377Z,97.52
2018-06-05T04:08:52.386Z,96.94
2018-06-05T04:09:52.411Z,96.66
2018-06-05T04:10:52.447Z,96.75
2018-06-05T04:11:52.463Z,96.47
2018-06-05T04:12:52.755Z,97.33
2018-06-05T04:13:52.784Z,96.94
2018-06-05T04:14:52.786Z,96.94
2018-06-05T04:15:52.835Z,97.56
2018-06-05T04:16:52.853Z,97.66
2018-06-05T04:17:52.865Z,97.76
2018-06-05T04:18:52.889Z,97.56
2018-06-05T04:19:52.911Z,98.53
2018-06-05T04:20:52.947Z,98.05
2018-06-05T04:22:07.617Z,97.56
2018-06-05T04:22:52.996Z,98.1
2018-06-05T04:23:53.015Z,98.19
2018-06-05T04:24:52.773Z,97.56
2018-06-05T04:25:53.050Z,97.42
2018-06-05T04:26:53.076Z,97.04
2018-06-05T04:27:53.116Z,97.14
2018-06-05T04:28:53.126Z,96.89
2018-06-05T04:29:53.161Z,96.99
2018-06-05T04:31:53.210Z,97.09
2018-06-05T04:32:53.216Z,96.61
2018-06-05T04:33:53.240Z,97.09
2018-06-05T04:34:53.283Z,96.66
2018-06-05T04:35:53.295Z,97.09
2018-06-05T04:36:53.334Z,97.14
2018-06-05T04:38:08.001Z,97.04
2018-06-05T04:38:53.383Z,96.56
2018-06-05T04:39:53.384Z,96.94
2018-06-05T04:40:53.425Z,96.18
2018-06-05T04:41:53.444Z,96.37
2018-06-05T04:42:53.199Z,96.27
2018-06-05T04:43:53.477Z,96.08
2018-06-05T04:44:53.520Z,95.98
2018-06-05T04:45:53.269Z,95.98
2018-06-05T04:46:53.570Z,95.79
2018-06-05T04:47:53.657Z,95.6
2018-06-05T04:48:53.601Z,95.41
2018-06-05T04:50:53.647Z,95.7
2018-06-05T04:51:53.688Z,95.21
2018-06-05T04:53:08.383Z,94.93
2018-06-05T04:53:53.739Z,94.54
2018-06-05T04:54:53.762Z,95.21
2018-06-05T04:55:53.513Z,94.45
2018-06-05T04:56:53.788Z,95.6
2018-06-05T04:57:53.812Z,95.12
2018-06-05T04:59:53.860Z,94.83
2018-06-05T05:00:53.903Z,94.83
2018-06-05T05:01:53.926Z,94.64
2018-06-05T05:02:53.950Z,94.83
2018-06-05T05:03:53.959Z,94.83
2018-06-05T05:04:53.979Z,94.74
2018-06-05T05:05:54.029Z,94.83
2018-06-05T05:06:54.037Z,94.35
2018-06-05T05:07:54.050Z,94.45
2018-06-05T05:08:54.095Z,94.54
2018-06-05T05:09:54.102Z,94.45
2018-06-05T05:10:53.881Z,94.45
2018-06-05T05:11:54.148Z,94.26
2018-06-05T05:12:54.189Z,93.34
2018-06-05T05:13:54.194Z,93.54
2018-06-05T05:14:54.219Z,92.91
2018-06-05T05:15:54.263Z,93.2
2018-06-05T05:16:54.275Z,92.86
2018-06-05T05:17:54.309Z,92.67
2018-06-05T05:18:54.315Z,92.77
2018-06-05T05:19:54.359Z,92.57
2018-06-05T05:20:54.107Z,92.91
2018-06-05T05:21:54.388Z,92.67
2018-06-05T05:22:54.426Z,92.57
2018-06-05T05:23:54.452Z,92.53
2018-06-05T05:25:09.127Z,92.57
2018-06-05T05:25:54.483Z,92.72
2018-06-05T05:26:54.525Z,92.38
2018-06-05T05:27:54.530Z,92.82
2018-06-05T05:28:54.303Z,92.43
2018-06-05T05:29:54.584Z,92.91
2018-06-05T05:30:54.408Z,92.63
2018-06-05T05:31:54.648Z,92.82
2018-06-05T05:32:54.654Z,93.39
2018-06-05T05:33:54.694Z,93.3
2018-06-05T05:34:54.702Z,93.2
2018-06-05T05:35:54.752Z,93.39
2018-06-05T05:37:54.513Z,92.33
2018-06-05T05:38:54.798Z,93.01
2018-06-05T05:39:54.837Z,92.38
2018-06-05T05:41:09.504Z,92.1
2018-06-05T05:41:54.623Z,92
2018-06-05T05:42:54.891Z,91.9
2018-06-05T05:43:54.932Z,92.1
2018-06-05T05:44:54.943Z,92.48
2018-06-05T05:45:54.965Z,92.67
2018-06-05T05:46:54.989Z,92.77
2018-06-05T05:47:55.036Z,92.33
2018-06-05T05:48:55.055Z,92.19
2018-06-05T05:50:55.100Z,92.1
2018-06-05T05:51:55.106Z,91.9
2018-06-05T05:52:55.137Z,91.71
2018-06-05T05:53:55.162Z,91.52
2018-06-05T05:54:55.275Z,90.94
2018-06-05T05:55:55.222Z,90.46
2018-06-05T05:57:09.889Z,90.56
2018-06-05T05:57:55.270Z,91.23
2018-06-05T05:58:55.280Z,91.13
2018-06-05T05:59:55.049Z,91.33
2018-06-05T06:00:55.325Z,91.81
2018-06-05T06:01:55.366Z,91.81
2018-06-05T06:02:55.372Z,91.76
2018-06-05T06:03:55.409Z,92.29
2018-06-05T06:04:55.451Z,91.81
2018-06-05T06:05:55.463Z,91.71
2018-06-05T06:07:55.508Z,91.13
2018-06-05T06:08:55.616Z,90.66
2018-06-05T06:09:55.286Z,90.66
2018-06-05T06:10:55.655Z,90.27
2018-06-05T06:11:55.345Z,91.23
2018-06-05T06:13:10.280Z,90.94
2018-06-05T06:13:55.642Z,90.56
2018-06-05T06:15:55.688Z,90.66
2018-06-05T06:16:55.457Z,90.08
2018-06-05T06:17:55.486Z,90.37
2018-06-05T06:18:55.775Z,90.94
2018-06-05T06:20:55.810Z,90.66
2018-06-05T06:23:55.878Z,90.27
2018-06-05T06:26:55.750Z,90.66
2018-06-05T06:28:10.642Z,90.27
2018-06-05T06:28:56.002Z,90.27
2018-06-05T06:29:56.041Z,90.75
2018-06-05T06:30:56.066Z,90.56
2018-06-05T06:31:56.074Z,90.84
2018-06-05T06:32:56.120Z,90.56
2018-06-05T06:33:55.862Z,90.12
2018-06-05T06:34:56.150Z,90.51
2018-06-05T06:35:56.168Z,90.31
2018-06-05T06:36:56.262Z,90.22
2018-06-05T06:37:56.235Z,89.6
2018-06-05T06:38:56.248Z,90.12
2018-06-05T06:39:56.268Z,89.54
2018-06-05T06:40:56.291Z,89.36
2018-06-05T06:41:56.342Z,89.54
2018-06-05T06:42:56.341Z,89.74
2018-06-05T06:43:56.382Z,89.07
2018-06-05T06:44:56.385Z,89.07
2018-06-05T06:45:56.428Z,89.54
2018-06-05T06:46:56.434Z,90.03
2018-06-05T06:47:56.208Z,89.36
2018-06-05T06:48:56.316Z,89.26
2018-06-05T06:49:56.535Z,89.26
2018-06-05T06:50:56.288Z,89.54
2018-06-05T06:51:56.554Z,89.54
2018-06-05T06:52:56.599Z,89.07
2018-06-05T06:53:56.618Z,89.69
2018-06-05T06:54:56.646Z,89.45
2018-06-05T06:55:56.654Z,89.64
2018-06-05T06:56:56.433Z,89.64
2018-06-05T06:57:56.704Z,88.68
2018-06-05T06:59:11.386Z,88.68
2018-06-05T07:00:11.415Z,88.34
2018-06-05T07:00:56.842Z,88.34
2018-06-05T07:01:56.797Z,88.34
2018-06-05T07:02:56.839Z,88.15
2018-06-05T07:03:56.859Z,87.86
2018-06-05T07:04:56.925Z,87.67
2018-06-05T07:05:56.900Z,88.15
2018-06-05T07:06:56.936Z,88.24
2018-06-05T07:07:56.699Z,88.97
2018-06-05T07:08:56.718Z,88.06
2018-06-05T07:09:56.991Z,88.44
2018-06-05T07:10:56.760Z,88.49
2018-06-05T07:11:57.060Z,88.3
2018-06-05T07:12:57.071Z,89.11
2018-06-05T07:13:57.106Z,88.97
2018-06-05T07:14:57.114Z,88.97
2018-06-05T07:16:11.804Z,89.26
2018-06-05T07:16:57.160Z,88.01
2018-06-05T07:17:57.186Z,88.2
2018-06-05T07:18:57.222Z,87.76
2018-06-05T07:19:57.253Z,87.67
2018-06-05T07:20:57.278Z,87.29
2018-06-05T07:21:57.283Z,86.99
2018-06-05T07:22:57.326Z,86.65
2018-06-05T07:23:57.420Z,86.56
2018-06-05T07:24:57.099Z,86.27
2018-06-05T07:25:57.405Z,86.08
2018-06-05T07:26:57.406Z,86.08
2018-06-05T07:27:57.452Z,85.84
2018-06-05T07:28:57.453Z,86.18
2018-06-05T07:29:57.238Z,86.18
2018-06-05T07:30:57.516Z,85.46
2018-06-05T07:32:12.198Z,85.69
2018-06-05T07:32:57.564Z,84.73
2018-06-05T07:33:57.576Z,84.73
2018-06-05T07:34:57.357Z,85.02
2018-06-05T07:35:57.627Z,84.73
2018-06-05T07:36:57.664Z,85.4
2018-06-05T07:37:57.694Z,84.54
2018-06-05T07:38:57.442Z,84.54
2018-06-05T07:39:57.740Z,85.5
2018-06-05T07:40:57.500Z,86.04
2018-06-05T07:41:57.530Z,85.17
2018-06-05T07:43:57.832Z,84.63
2018-06-05T07:45:57.873Z,84.54
2018-06-05T07:46:57.655Z,85.02
2018-06-05T07:48:12.582Z,84.34
2018-06-05T07:48:57.964Z,83.96
2018-06-05T07:49:58.067Z,84.63
2018-06-05T07:50:58.015Z,84.63
2018-06-05T07:51:58.026Z,84.16
2018-06-05T07:52:58.042Z,84.63
2018-06-05T07:53:58.072Z,84.25
2018-06-05T07:54:58.113Z,83.42
2018-06-05T07:55:58.116Z,83.62
2018-06-05T07:56:58.161Z,82.65
2018-06-05T07:57:57.908Z,83.04
2018-06-05T07:58:58.210Z,81.98
2018-06-05T07:59:58.234Z,81.83
2018-06-05T08:00:57.982Z,81.25
2018-06-05T08:01:58.280Z,80.48
2018-06-05T08:03:12.956Z,80.87
2018-06-05T08:03:58.333Z,80.87
2018-06-05T08:04:58.340Z,81.63
2018-06-05T08:05:58.383Z,81.16
2018-06-05T08:06:58.389Z,80.48
2018-06-05T08:08:58.453Z,80.48
2018-06-05T08:09:58.470Z,79.36
2018-06-05T08:10:58.246Z,78.4
2018-06-05T08:11:58.614Z,78.25
2018-06-05T08:12:58.295Z,78.15
2018-06-05T08:13:58.565Z,77.76
2018-06-05T08:14:58.612Z,77.38
2018-06-05T08:15:58.375Z,77.76
2018-06-05T08:16:58.661Z,77.28
2018-06-05T08:17:58.668Z,78.06
2018-06-05T08:18:58.708Z,78.54
2018-06-05T08:19:58.721Z,78.06
2018-06-05T08:20:58.758Z,77.19
2018-06-05T08:21:58.766Z,76.42
2018-06-05T08:22:58.817Z,75.97
2018-06-05T08:23:58.557Z,75.88
2018-06-05T08:24:58.846Z,76.55
2018-06-05T08:25:58.866Z,75.4
2018-06-05T08:26:58.910Z,74.85
2018-06-05T08:28:58.941Z,73.63
2018-06-05T08:30:59.000Z,75.01
2018-06-05T08:31:59.017Z,75.62
2018-06-05T08:32:59.062Z,75.49
2018-06-05T08:33:59.074Z,75.59
2018-06-05T08:35:13.767Z,75.59
2018-06-05T08:35:59.120Z,74.69
2018-06-05T08:36:59.164Z,73.63
2018-06-05T08:37:59.271Z,72.96
2018-06-05T08:38:59.197Z,73.44
2018-06-05T08:39:59.239Z,72.42
2018-06-05T08:40:59.267Z,74.21
2018-06-05T08:41:59.305Z,74.95
2018-06-05T08:42:59.307Z,75.05
2018-06-05T08:43:59.348Z,75.24
2018-06-05T08:44:59.370Z,74.72
2018-06-05T08:45:59.377Z,75.59
2018-06-05T08:47:59.428Z,75.2
2018-06-05T08:48:59.453Z,76.17
2018-06-05T08:49:59.594Z,75.78
2018-06-05T08:51:14.168Z,75.88
2018-06-05T08:51:59.555Z,74.95
2018-06-05T08:52:59.563Z,74.6
2018-06-05T08:53:59.603Z,74.02
2018-06-05T08:54:59.608Z,73.63
2018-06-05T08:55:59.634Z,73.09
2018-06-05T08:56:59.679Z,72.32
2018-06-05T08:57:59.686Z,73
2018-06-05T08:58:59.738Z,73.15
2018-06-05T08:59:59.927Z,73.06
2018-06-05T09:01:59.793Z,74.12
2018-06-05T09:02:59.818Z,73.63
2018-06-05T09:03:59.866Z,73.73
2018-06-05T09:04:59.869Z,73.25
2018-06-05T09:05:59.914Z,73.58
2018-06-05T09:07:14.581Z,73.35
2018-06-05T09:07:59.949Z,72.42
2018-06-05T09:08:59.972Z,72.42
2018-06-05T09:10:00.001Z,72.42
2018-06-05T09:11:00.153Z,72.52
2018-06-05T09:12:00.099Z,72.8
2018-06-05T09:12:59.827Z,72.32
2018-06-05T09:14:00.120Z,72.58
2018-06-05T09:16:00.178Z,71.1
2018-06-05T09:17:00.300Z,70.9
2018-06-05T09:19:00.295Z,72.06
2018-06-05T09:20:00.259Z,72.32
2018-06-05T09:21:00.302Z,72.52
2018-06-05T09:22:00.361Z,73.67
2018-06-05T09:23:15.054Z,73.63
2018-06-05T09:24:00.385Z,74.27
2018-06-05T09:25:00.407Z,73.63
2018-06-05T09:26:00.155Z,73.54
2018-06-05T09:27:00.458Z,72.22
2018-06-05T09:28:00.470Z,71.74
2018-06-05T09:29:00.564Z,71.48
2018-06-05T09:30:00.521Z,71.04
2018-06-05T09:31:00.565Z,69.88
2018-06-05T09:32:00.368Z,69.3
2018-06-05T09:33:00.616Z,69.49
2018-06-05T09:35:00.656Z,70.26
2018-06-05T09:36:00.677Z,71.2
2018-06-05T09:37:00.706Z,72.32
2018-06-05T09:38:15.397Z,71.55
2018-06-05T09:39:00.807Z,72.52
2018-06-05T09:40:00.800Z,72.42
2018-06-05T09:41:00.556Z,72.8
2018-06-05T09:42:00.938Z,73.67
2018-06-05T09:43:00.879Z,72.52
2018-06-05T09:44:00.905Z,73.38
2018-06-05T09:45:00.930Z,72.61
2018-06-05T09:47:01.073Z,73.06
2018-06-05T09:48:01.010Z,72.8
2018-06-05T09:49:01.070Z,71.94
2018-06-05T09:50:01.070Z,72.42
2018-06-05T09:51:01.076Z,72.52
2018-06-05T09:52:01.211Z,73.09
2018-06-05T09:53:01.124Z,73.44
2018-06-05T09:54:00.900Z,72.71
2018-06-05T09:55:01.178Z,72.9
2018-06-05T09:56:01.222Z,73.77
2018-06-05T09:57:01.251Z,73.58
2018-06-05T09:58:01.550Z,73.48
2018-06-05T09:59:01.042Z,74.21
2018-06-05T10:00:01.315Z,73.41
2018-06-05T10:01:01.341Z,73.25
2018-06-05T10:02:01.361Z,72.22
2018-06-05T10:03:01.408Z,71.84
2018-06-05T10:04:01.558Z,72.61
2018-06-05T10:05:01.447Z,73.54
2018-06-05T10:07:01.501Z,72.52
2018-06-05T10:08:01.521Z,72.52
2018-06-05T10:09:01.588Z,73.09
2018-06-05T10:10:16.336Z,74.02
2018-06-05T10:11:01.650Z,75.24
2018-06-05T10:12:01.644Z,74.85
2018-06-05T10:13:01.659Z,73.69
2018-06-05T10:14:01.697Z,73.83
2018-06-05T10:15:01.710Z,73.83
2018-06-05T10:17:01.809Z,73.38
2018-06-05T10:18:01.785Z,73.38
2018-06-05T10:19:01.830Z,73.58
2018-06-05T10:20:01.854Z,73.58
2018-06-05T10:21:01.878Z,73.54
2018-06-05T10:22:01.891Z,74.12
2018-06-05T10:23:01.939Z,75.14
2018-06-05T10:24:01.941Z,75.59
2018-06-05T10:25:01.986Z,75.24
2018-06-05T10:26:16.705Z,75.24
2018-06-05T10:27:02.023Z,74.31
2018-06-05T10:28:02.062Z,73.77
2018-06-05T10:29:02.121Z,73.67
2018-06-05T10:30:02.117Z,73.38
2018-06-05T10:31:02.127Z,72.9
2018-06-05T10:32:02.155Z,73
2018-06-05T10:33:02.175Z,72.22
2018-06-05T10:34:02.279Z,72.55
2018-06-05T10:36:02.272Z,72.55
2018-06-05T10:38:02.325Z,72.36
2018-06-05T10:39:02.345Z,71.78
2018-06-05T10:40:02.117Z,71.88
2018-06-05T10:41:02.389Z,71.58
2018-06-05T10:42:17.086Z,70.75
2018-06-05T10:43:02.459Z,71.04
2018-06-05T10:44:02.471Z,71.88
2018-06-05T10:45:02.512Z,71.3
2018-06-05T10:46:02.267Z,71.48
2018-06-05T10:48:02.323Z,71.39
2018-06-05T10:49:02.597Z,72.36
2018-06-05T10:50:02.640Z,71.88
2018-06-05T10:51:02.650Z,71.97
2018-06-05T10:52:02.699Z,71.88
2018-06-05T10:53:02.710Z,71.58
2018-06-05T10:54:02.766Z,71.3
2018-06-05T10:55:02.802Z,71.42
2018-06-05T10:56:02.784Z,70.94
2018-06-05T10:57:02.808Z,71.39
2018-06-05T10:58:17.499Z,73.28
2018-06-05T10:59:02.898Z,74.51
2018-06-05T11:00:02.888Z,74.79
2018-06-05T11:01:02.668Z,74.79
2018-06-05T11:02:02.944Z,75.09
2018-06-05T11:03:02.968Z,74.79
2018-06-05T11:04:03.007Z,75.18
2018-06-05T11:05:03.028Z,75.62
2018-06-05T11:06:02.789Z,76.45
2018-06-05T11:07:03.140Z,76.2
2018-06-05T11:08:03.105Z,75.57
2018-06-05T11:09:03.138Z,75.76
2018-06-05T11:10:03.152Z,75.34
2018-06-05T11:11:02.929Z,75.34
2018-06-05T11:12:02.942Z,75.27
2018-06-05T11:13:17.889Z,74.06
2018-06-05T11:14:03.005Z,75.27
2018-06-05T11:15:03.293Z,74.6
2018-06-05T11:16:03.304Z,73.86
2018-06-05T11:17:03.354Z,74.06
2018-06-05T11:18:03.409Z,72.64
2018-06-05T11:19:03.410Z,72.74
2018-06-05T11:20:03.424Z,71.78
2018-06-05T11:22:03.481Z,70.88
2018-06-05T11:23:03.502Z,68.59
2018-06-05T11:24:03.586Z,68.24
2018-06-05T11:25:03.572Z,68.43
2018-06-05T11:26:03.587Z,68.05
2018-06-05T11:27:03.349Z,67.85
2018-06-05T11:28:03.673Z,69.46
2018-06-05T11:29:03.653Z,68.98
2018-06-05T11:30:03.840Z,69.17
2018-06-05T11:31:03.444Z,69.46
2018-06-05T11:32:03.742Z,68.69
2018-06-05T11:33:03.498Z,68.05
2018-06-05T11:34:03.830Z,67.27
2018-06-05T11:35:03.809Z,66.34
2018-06-05T11:36:03.862Z,66.17
2018-06-05T11:37:03.884Z,65.14
2018-06-05T11:38:03.632Z,63.04
2018-06-05T11:39:03.769Z,62.01
2018-06-05T11:40:03.949Z,61.42
2018-06-05T11:42:04.001Z,61.19
2018-06-05T11:43:04.049Z,61.78
2018-06-05T11:44:04.071Z,62.43
2018-06-05T11:45:18.743Z,62.13
2018-06-05T11:46:04.132Z,62.04
2018-06-05T11:48:04.173Z,63.01
2018-06-05T11:49:03.955Z,63.23
2018-06-05T11:50:04.238Z,62.26
2018-06-05T11:51:04.003Z,63.4
2018-06-05T11:52:04.280Z,64.79
2018-06-05T11:53:04.321Z,65.92
2018-06-05T11:54:04.543Z,66.98
2018-06-05T11:55:04.113Z,67.63
2018-06-05T11:56:04.391Z,68.01
2018-06-05T11:57:04.169Z,67.53
2018-06-05T11:58:04.182Z,65.72
2018-06-05T11:59:04.225Z,65.85
2018-06-05T12:00:04.241Z,65.85
2018-06-05T12:01:19.192Z,64.34
2018-06-05T12:03:04.324Z,65.2
2018-06-05T12:04:04.349Z,64.62
2018-06-05T12:05:04.376Z,63.95
2018-06-05T12:06:04.679Z,63.85
2018-06-05T12:08:04.473Z,64.82
2018-06-05T12:09:04.762Z,64.24
2018-06-05T12:10:04.517Z,64.72
2018-06-05T12:12:04.569Z,63.1
2018-06-05T12:13:04.872Z,63.88
2018-06-05T12:14:04.622Z,65.08
2018-06-05T12:15:04.925Z,65.27
2018-06-05T12:16:04.953Z,65.34
2018-06-05T12:17:19.625Z,65.05
2018-06-05T12:18:05.008Z,65.27
2018-06-05T12:19:04.759Z,64.3
2018-06-05T12:20:04.793Z,63.3
2018-06-05T12:21:05.074Z,63.4
2018-06-05T12:22:04.856Z,61.19
2018-06-05T12:23:04.885Z,61.29
2018-06-05T12:24:05.164Z,61.75
2018-06-05T12:25:04.926Z,62.04
2018-06-05T12:26:05.231Z,62.55
2018-06-05T12:29:05.039Z,59.7
2018-06-05T12:30:05.068Z,58.25
2018-06-05T12:31:05.156Z,58.28
2018-06-05T12:32:05.134Z,57.98
2018-06-05T12:33:20.072Z,58.83
2018-06-05T12:34:05.429Z,58.47
2018-06-05T12:35:05.483Z,58.73
2018-06-05T12:36:05.233Z,58.15
2018-06-05T12:37:05.543Z,58.34
2018-06-05T12:38:05.565Z,58.73
2018-06-05T12:39:05.689Z,58.64
2018-06-05T12:41:05.636Z,60.06
2018-06-05T12:42:05.669Z,60.74
2018-06-05T12:43:05.686Z,62.16
2018-06-05T12:44:05.731Z,60.91
2018-06-05T12:45:05.738Z,62.46
2018-06-05T12:46:05.789Z,63.13
2018-06-05T12:47:05.809Z,62.46
2018-06-05T12:48:20.489Z,61.39
2018-06-05T12:49:05.850Z,62.75
2018-06-05T12:50:05.620Z,63.01
2018-06-05T12:51:05.935Z,63.65
2018-06-05T12:52:05.945Z,65.37
2018-06-05T12:53:05.960Z,65.08
2018-06-05T12:54:06.009Z,64.01
2018-06-05T12:55:05.762Z,63.95
2018-06-05T12:56:05.800Z,62.98
2018-06-05T12:57:06.088Z,62.88
2018-06-05T12:58:06.258Z,63.27
2018-06-05T12:59:05.868Z,62.33
2018-06-05T13:00:06.160Z,62.04
2018-06-05T13:01:06.204Z,61.29
2018-06-05T13:02:06.207Z,61.78
2018-06-05T13:03:06.311Z,61.36
2018-06-05T13:04:06.332Z,61.85
2018-06-05T13:05:06.359Z,61.19
2018-06-05T13:06:06.062Z,60.84
2018-06-05T13:07:06.348Z,60.25
2018-06-05T13:08:06.126Z,60.64
2018-06-05T13:09:06.412Z,61.29
2018-06-05T13:10:06.453Z,60.78
2018-06-05T13:11:06.460Z,62.2
2018-06-05T13:12:06.614Z,61.33
2018-06-05T13:13:06.521Z,62.01
2018-06-05T13:14:06.304Z,62.2
2018-06-05T13:15:06.572Z,61.33
2018-06-05T13:16:06.622Z,61
2018-06-05T13:17:06.639Z,60.13
2018-06-05T13:18:06.673Z,59.41
2018-06-05T13:19:06.423Z,60.35
2018-06-05T13:20:21.377Z,58.41
2018-06-05T13:21:06.489Z,58.61
2018-06-05T13:22:06.521Z,57.96
2018-06-05T13:23:06.593Z,57.21
2018-06-05T13:24:06.580Z,56.56
2018-06-05T13:25:06.849Z,56.46
2018-06-05T13:26:06.893Z,57.4
2018-06-05T13:27:06.646Z,57.21
2018-06-05T13:28:06.948Z,57.31
2018-06-05T13:29:06.957Z,57.79
2018-06-05T13:30:06.997Z,57.01
2018-06-05T13:31:07.042Z,57.67
2018-06-05T13:33:07.093Z,59.12
2018-06-05T13:34:06.856Z,60.91
2018-06-05T13:35:07.148Z,61.26
2018-06-05T13:36:21.819Z,62.88
2018-06-05T13:37:07.187Z,63.14
2018-06-05T13:38:07.232Z,63.92
2018-06-05T13:39:07.260Z,64.11
2018-06-05T13:40:07.291Z,64.37
2018-06-05T13:41:07.297Z,64.89
2018-06-05T13:42:07.340Z,65.66
2018-06-05T13:43:07.096Z,65.17
2018-06-05T13:44:07.150Z,65.37
2018-06-05T13:45:07.149Z,64.72
2018-06-05T13:46:07.191Z,65.17
2018-06-05T13:47:07.467Z,65.17